Time;durP1;ratioP1;P1;durP2;ratioP2;P2;SDS_P1;SDS_P2;PMS_P1;PMS_P2;Temp;Humidity;BMP_temperature;BMP_pressure;BME280_temperature;BME280_humidity;BME280_pressure;Samples;Min_cycle;Max_cycle;Signal;HPM_P1;HPM_P2
2022/06/29 00:00:49;;;;;;;4.43;2.28;;;21.00;89.30;;;;;;5043492;28;20424;-67
2022/06/29 00:03:16;;;;;;;3.35;2.20;;;20.90;89.30;;;;;;5047274;28;20118;-66
2022/06/29 00:05:41;;;;;;;2.97;1.98;;;20.90;89.40;;;;;;5053794;28;20033;-66
2022/06/29 00:08:07;;;;;;;4.15;2.28;;;20.90;89.60;;;;;;5044678;28;20386;-67
2022/06/29 00:10:34;;;;;;;3.03;2.10;;;20.90;89.70;;;;;;5045041;28;20032;-67
2022/06/29 00:13:00;;;;;;;2.97;2.20;;;20.90;89.90;;;;;;5045691;28;20029;-66
2022/06/29 00:15:25;;;;;;;3.22;1.90;;;20.80;90.00;;;;;;5043440;28;20025;-66
2022/06/29 00:17:51;;;;;;;2.55;2.00;;;20.80;90.10;;;;;;5051121;28;20025;-66
2022/06/29 00:20:17;;;;;;;3.00;2.13;;;20.80;90.30;;;;;;5049323;28;20083;-66
2022/06/29 00:22:43;;;;;;;2.15;1.95;;;20.70;90.30;;;;;;5036472;28;20029;-65
2022/06/29 00:25:10;;;;;;;3.35;2.00;;;20.70;90.50;;;;;;5036978;28;20033;-67
2022/06/29 00:27:36;;;;;;;3.90;2.17;;;20.70;90.60;;;;;;5043281;28;20056;-68
2022/06/29 00:30:03;;;;;;;4.18;2.03;;;20.70;90.80;;;;;;5059924;28;20464;-67
2022/06/29 00:32:28;;;;;;;2.55;2.10;;;20.60;90.80;;;;;;5038434;28;20388;-67
2022/06/29 00:34:54;;;;;;;3.80;2.10;;;20.60;90.90;;;;;;5051900;28;20029;-67
2022/06/29 00:37:20;;;;;;;2.75;2.13;;;20.60;91.30;;;;;;5051234;28;20033;-67
2022/06/29 00:39:46;;;;;;;3.13;2.10;;;20.50;91.10;;;;;;5036384;28;20021;-67
2022/06/29 00:42:11;;;;;;;3.58;2.38;;;20.50;91.20;;;;;;5034224;28;20036;-66
2022/06/29 00:44:37;;;;;;;2.55;2.10;;;20.50;91.30;;;;;;5047891;28;20109;-66
2022/06/29 00:47:06;;;;;;;3.33;2.10;;;20.50;91.30;;;;;;5035223;28;20025;-67
2022/06/29 00:49:33;;;;;;;3.97;2.30;;;20.50;91.40;;;;;;5051730;28;20033;-67
2022/06/29 00:52:10;;;;;;;3.53;1.95;;;20.50;91.50;;;;;;5048510;28;20033;-66
2022/06/29 00:54:38;;;;;;;3.42;2.20;;;20.50;91.60;;;;;;5046730;28;20107;-65
2022/06/29 00:57:30;;;;;;;3.15;2.10;;;20.50;91.70;;;;;;5048192;28;20125;-67
2022/06/29 00:59:59;;;;;;;2.97;2.45;;;20.50;91.70;;;;;;5040474;28;20112;-64
2022/06/29 01:02:33;;;;;;;2.60;2.03;;;20.40;91.80;;;;;;5047532;28;20045;-65
2022/06/29 01:04:59;;;;;;;3.58;2.30;;;20.40;91.90;;;;;;5052495;28;20033;-64
2022/06/29 01:07:26;;;;;;;3.30;2.38;;;20.30;92.00;;;;;;5047419;28;20090;-65
2022/06/29 01:09:52;;;;;;;2.80;2.13;;;20.30;92.20;;;;;;5032953;28;20063;-64
2022/06/29 01:12:19;;;;;;;2.72;2.40;;;20.30;92.20;;;;;;5034554;28;20104;-65
2022/06/29 01:14:46;;;;;;;3.70;2.17;;;20.30;92.30;;;;;;5033561;28;20049;-64
2022/06/29 01:17:12;;;;;;;3.35;2.05;;;20.30;92.40;;;;;;5040932;28;20036;-65
2022/06/29 01:19:38;;;;;;;3.80;2.58;;;20.20;92.40;;;;;;5039380;28;20103;-67
2022/06/29 01:22:14;;;;;;;3.63;2.63;;;20.20;92.60;;;;;;5032554;28;20029;-68
2022/06/29 01:24:41;;;;;;;3.72;2.40;;;20.20;92.70;;;;;;5049417;28;20114;-64
2022/06/29 01:27:07;;;;;;;3.45;2.10;;;20.10;92.70;;;;;;5032413;28;20037;-65
2022/06/29 01:29:33;;;;;;;4.18;2.60;;;20.10;92.80;;;;;;5042898;28;20048;-65
2022/06/29 01:31:59;;;;;;;3.17;2.33;;;20.10;93.00;;;;;;5052323;28;20396;-64
2022/06/29 01:34:29;;;;;;;5.30;2.50;;;20.10;93.10;;;;;;5047165;28;20123;-65
2022/06/29 01:36:54;;;;;;;2.90;1.95;;;20.10;93.20;;;;;;5041581;28;20072;-65
2022/06/29 01:39:20;;;;;;;3.17;2.20;;;20.00;93.30;;;;;;5046699;28;20499;-65
2022/06/29 01:41:46;;;;;;;4.57;2.22;;;20.00;93.30;;;;;;5043773;28;20369;-65
2022/06/29 01:44:11;;;;;;;2.25;2.05;;;20.00;93.30;;;;;;5047191;28;20025;-65
2022/06/29 01:46:37;;;;;;;3.65;2.67;;;20.00;93.40;;;;;;5048979;28;20033;-65
2022/06/29 01:49:03;;;;;;;3.42;2.10;;;20.00;93.50;;;;;;5048873;28;20092;-65
2022/06/29 01:51:28;;;;;;;3.75;2.40;;;20.00;93.50;;;;;;5042142;28;20086;-65
2022/06/29 01:53:54;;;;;;;3.08;2.00;;;20.00;93.50;;;;;;5050500;28;20036;-65
2022/06/29 01:56:19;;;;;;;4.30;2.28;;;19.90;93.60;;;;;;5037734;28;20028;-64
2022/06/29 01:58:45;;;;;;;3.38;2.05;;;19.90;93.60;;;;;;5050274;28;20045;-64
2022/06/29 02:01:12;;;;;;;4.90;2.80;;;19.90;93.70;;;;;;5039731;28;20037;-65
2022/06/29 02:03:38;;;;;;;4.68;2.63;;;19.90;93.70;;;;;;5042263;28;20026;-65
2022/06/29 02:06:04;;;;;;;3.55;2.22;;;19.90;93.80;;;;;;5045902;28;20039;-64
2022/06/29 02:08:30;;;;;;;4.50;2.20;;;19.90;93.70;;;;;;5048127;28;20132;-64
2022/06/29 02:10:58;;;;;;;5.10;2.45;;;19.90;93.80;;;;;;5051449;28;20070;-64
2022/06/29 02:13:23;;;;;;;2.90;2.22;;;19.90;93.80;;;;;;5049236;28;20024;-64
2022/06/29 02:15:49;;;;;;;4.03;2.00;;;19.90;93.80;;;;;;5045347;28;20116;-64
2022/06/29 02:18:15;;;;;;;2.92;2.13;;;19.90;93.90;;;;;;5050747;28;20091;-65
2022/06/29 02:20:40;;;;;;;4.53;2.40;;;19.80;93.90;;;;;;5036082;28;20025;-64
2022/06/29 02:23:06;;;;;;;3.63;2.35;;;19.80;93.90;;;;;;5050711;28;20551;-65
2022/06/29 02:25:31;;;;;;;3.90;2.80;;;19.80;93.90;;;;;;5033530;28;20059;-65
2022/06/29 02:27:57;;;;;;;3.90;2.45;;;19.80;94.00;;;;;;5044669;28;20040;-65
2022/06/29 02:34:43;;;;;;;3.28;2.47;;;19.80;94.00;;;;;;5045723;28;20132;-65
2022/06/29 02:35:52;;;;;;;3.47;2.20;;;19.80;94.10;;;;;;5050694;28;20094;-64
2022/06/29 02:38:18;;;;;;;2.95;2.28;;;19.70;94.10;;;;;;5047864;28;20021;-65
2022/06/29 02:40:44;;;;;;;4.40;2.38;;;19.80;94.20;;;;;;5051182;28;20025;-65
2022/06/29 02:43:10;;;;;;;3.75;2.40;;;19.80;94.30;;;;;;5049170;28;20047;-65
2022/06/29 02:45:35;;;;;;;4.93;2.50;;;19.70;94.30;;;;;;5045011;28;20116;-65
2022/06/29 02:48:01;;;;;;;3.30;2.35;;;19.80;94.30;;;;;;5042359;28;20027;-65
2022/06/29 02:50:27;;;;;;;3.30;2.25;;;19.80;94.40;;;;;;5047779;28;20061;-65
2022/06/29 02:52:53;;;;;;;2.55;2.15;;;19.70;94.40;;;;;;5045014;28;20021;-65
2022/06/29 02:55:18;;;;;;;4.28;2.20;;;19.70;94.50;;;;;;5053078;28;20133;-65
2022/06/29 02:57:44;;;;;;;3.58;2.30;;;19.70;94.50;;;;;;5044106;28;20518;-65
2022/06/29 03:00:11;;;;;;;3.63;2.13;;;19.70;94.80;;;;;;5047653;28;20029;-65
2022/06/29 03:02:36;;;;;;;2.88;2.20;;;19.60;94.90;;;;;;5043534;28;20025;-65
2022/06/29 03:05:02;;;;;;;3.50;2.53;;;19.60;94.70;;;;;;5048276;28;20524;-65
2022/06/29 03:07:28;;;;;;;3.72;2.38;;;19.60;94.80;;;;;;5042041;28;20037;-65
2022/06/29 03:09:53;;;;;;;3.38;2.40;;;19.60;94.80;;;;;;5050009;28;20037;-65
2022/06/29 03:12:19;;;;;;;4.53;2.30;;;19.60;94.90;;;;;;5041404;28;20025;-65
2022/06/29 03:15:05;;;;;;;3.75;2.30;;;19.60;94.90;;;;;;5052717;28;20495;-65
2022/06/29 03:17:31;;;;;;;4.32;2.33;;;19.60;94.90;;;;;;5050230;28;20286;-65
2022/06/29 03:19:58;;;;;;;3.80;2.10;;;19.60;94.90;;;;;;5052577;28;20310;-65
2022/06/29 03:22:24;;;;;;;3.97;2.13;;;19.60;94.90;;;;;;5042808;28;20033;-65
2022/06/29 03:24:50;;;;;;;5.57;2.63;;;19.70;94.90;;;;;;5053620;28;20404;-65
2022/06/29 03:27:15;;;;;;;2.30;1.90;;;19.70;94.90;;;;;;5052038;28;20036;-65
2022/06/29 03:29:41;;;;;;;3.03;2.58;;;19.70;94.90;;;;;;5054062;28;20044;-65
2022/06/29 03:32:08;;;;;;;4.20;2.28;;;19.70;94.80;;;;;;5040019;28;20028;-65
2022/06/29 03:34:33;;;;;;;4.47;2.13;;;19.70;94.80;;;;;;5054128;28;20078;-65
2022/06/29 03:36:59;;;;;;;3.03;2.13;;;19.70;94.80;;;;;;5041038;28;20526;-65
2022/06/29 03:39:24;;;;;;;4.03;2.33;;;19.70;94.90;;;;;;5053282;28;20472;-64
2022/06/29 03:41:50;;;;;;;2.83;2.20;;;19.70;94.90;;;;;;5052551;28;20078;-65
2022/06/29 03:44:15;;;;;;;2.97;2.30;;;19.70;94.90;;;;;;5054193;28;20045;-65
2022/06/29 03:46:41;;;;;;;2.80;2.20;;;19.70;94.90;;;;;;5041727;28;20412;-64
2022/06/29 03:49:06;;;;;;;2.50;2.00;;;19.70;94.90;;;;;;5052842;28;20554;-64
2022/06/29 03:51:33;;;;;;;3.53;2.33;;;19.70;94.80;;;;;;5040480;28;20033;-64
2022/06/29 03:53:58;;;;;;;2.72;1.98;;;19.70;94.80;;;;;;5050947;28;20445;-64
2022/06/29 03:56:24;;;;;;;3.33;2.38;;;19.70;94.70;;;;;;5043983;28;20101;-64
2022/06/29 03:58:50;;;;;;;3.03;2.05;;;19.70;94.70;;;;;;5052567;28;20029;-65
2022/06/29 04:01:15;;;;;;;3.70;2.33;;;19.70;94.60;;;;;;5048952;28;20029;-65
2022/06/29 04:03:41;;;;;;;3.28;2.20;;;19.80;94.60;;;;;;5050853;28;20387;-65
2022/06/29 04:06:07;;;;;;;4.13;2.63;;;19.80;94.60;;;;;;5051569;28;20110;-65
2022/06/29 04:08:33;;;;;;;3.05;2.42;;;19.90;94.50;;;;;;5051894;28;20059;-65
2022/06/29 04:10:58;;;;;;;4.68;2.25;;;19.90;94.50;;;;;;5048477;28;20033;-64
2022/06/29 04:13:24;;;;;;;3.22;2.30;;;20.00;94.50;;;;;;5048116;28;20084;-64
2022/06/29 04:15:50;;;;;;;3.00;2.05;;;20.00;94.50;;;;;;5051250;28;20338;-64
2022/06/29 04:18:16;;;;;;;3.65;2.03;;;20.10;94.40;;;;;;5051536;28;20035;-64
2022/06/29 04:23:26;;;;;;;3.13;2.00;;;20.20;94.40;;;;;;5049100;28;20522;-64
2022/06/29 04:25:52;;;;;;;2.50;2.17;;;20.30;94.40;;;;;;5044925;28;20045;-64
2022/06/29 04:28:17;;;;;;;5.78;2.20;;;20.40;94.30;;;;;;5047810;28;20520;-65
2022/06/29 04:30:43;;;;;;;3.10;2.28;;;20.40;94.40;;;;;;5045832;28;20081;-63
2022/06/29 04:33:08;;;;;;;2.85;1.88;;;20.50;94.40;;;;;;5046344;28;20469;-64
2022/06/29 04:35:34;;;;;;;2.63;2.10;;;20.60;94.20;;;;;;5037670;28;20444;-65
2022/06/29 04:38:00;;;;;;;5.30;2.00;;;20.70;94.10;;;;;;5044812;28;20392;-64
2022/06/29 04:40:26;;;;;;;3.55;2.00;;;20.80;94.10;;;;;;5048113;28;20029;-65
2022/06/29 04:42:51;;;;;;;4.80;3.13;;;20.80;94.00;;;;;;5049410;28;20116;-65
2022/06/29 04:48:02;;;;;;;4.30;2.10;;;20.90;93.80;;;;;;5051021;28;20072;-64
2022/06/29 04:50:29;;;;;;;2.75;2.22;;;21.00;93.80;;;;;;5040152;28;20081;-65
2022/06/29 04:52:54;;;;;;;3.13;2.42;;;21.00;93.70;;;;;;5043892;28;20029;-65
2022/06/29 04:55:20;;;;;;;3.85;2.65;;;21.10;93.60;;;;;;5051046;28;20541;-65
2022/06/29 04:57:46;;;;;;;39.83;26.33;;;21.10;93.50;;;;;;5051341;28;20075;-65
2022/06/29 05:00:12;;;;;;;6.47;4.78;;;21.10;93.50;;;;;;5048705;28;20083;-65
2022/06/29 05:02:38;;;;;;;4.85;2.60;;;21.10;93.40;;;;;;5042388;28;20392;-64
2022/06/29 05:05:04;;;;;;;4.25;2.42;;;21.10;93.40;;;;;;5045187;28;20025;-65
2022/06/29 05:07:29;;;;;;;3.53;2.55;;;21.10;93.40;;;;;;5040021;28;20037;-65
2022/06/29 05:09:55;;;;;;;3.00;2.15;;;21.10;93.40;;;;;;5045833;28;20029;-65
2022/06/29 05:12:20;;;;;;;4.05;2.63;;;21.10;93.30;;;;;;5050373;28;20043;-64
2022/06/29 05:14:46;;;;;;;3.25;2.17;;;21.10;93.40;;;;;;5047138;28;20029;-65
2022/06/29 05:17:12;;;;;;;3.20;2.22;;;21.10;93.30;;;;;;5048482;28;20028;-65
2022/06/29 05:19:37;;;;;;;2.60;2.13;;;21.10;93.30;;;;;;5049174;28;20480;-65
2022/06/29 05:22:03;;;;;;;2.55;2.03;;;21.10;93.20;;;;;;5035042;28;20084;-64
2022/06/29 05:24:28;;;;;;;5.15;2.20;;;21.10;93.30;;;;;;5051854;28;20067;-65
2022/06/29 05:26:54;;;;;;;5.30;2.60;;;21.10;93.30;;;;;;5035188;28;20460;-65
2022/06/29 05:29:20;;;;;;;4.63;2.05;;;21.10;93.20;;;;;;5050376;28;20041;-65
2022/06/29 05:31:45;;;;;;;4.18;2.30;;;21.10;93.20;;;;;;5043285;28;20044;-65
2022/06/29 05:34:11;;;;;;;5.13;2.33;;;21.20;93.30;;;;;;5050305;28;20201;-65
2022/06/29 05:36:37;;;;;;;4.65;2.40;;;21.20;93.20;;;;;;5044558;28;20029;-65
2022/06/29 05:39:03;;;;;;;3.78;2.72;;;21.20;93.10;;;;;;5050708;28;20036;-65
2022/06/29 05:41:28;;;;;;;3.28;2.22;;;21.30;93.20;;;;;;5045896;28;20099;-65
2022/06/29 05:43:54;;;;;;;5.40;2.30;;;21.30;93.10;;;;;;5050120;28;20080;-65
2022/06/29 05:46:22;;;;;;;3.95;2.15;;;21.40;93.00;;;;;;5047341;28;20021;-64
2022/06/29 05:48:47;;;;;;;3.35;2.30;;;21.50;92.90;;;;;;5049127;28;20484;-64
2022/06/29 05:51:13;;;;;;;3.50;2.30;;;21.50;92.80;;;;;;5048815;28;20044;-69
2022/06/29 05:53:39;;;;;;;6.75;2.22;;;21.60;92.70;;;;;;5047067;28;20017;-73
2022/06/29 05:56:04;;;;;;;3.20;2.13;;;21.70;92.60;;;;;;5047446;28;20041;-72
2022/06/29 05:58:30;;;;;;;4.47;2.17;;;21.70;92.30;;;;;;5051206;28;20024;-72
2022/06/29 06:00:55;;;;;;;4.90;2.15;;;21.80;92.20;;;;;;5056236;28;20020;-70
2022/06/29 06:03:21;;;;;;;3.50;2.17;;;21.80;91.90;;;;;;5050002;28;20043;-70
2022/06/29 06:05:46;;;;;;;3.97;2.22;;;21.80;91.50;;;;;;5048325;28;20082;-70
2022/06/29 06:08:13;;;;;;;4.05;2.35;;;21.80;91.40;;;;;;5046825;28;20045;-71
2022/06/29 06:10:39;;;;;;;4.00;2.38;;;21.80;91.30;;;;;;5037890;28;20045;-70
2022/06/29 06:13:08;;;;;;;4.75;2.40;;;21.80;91.30;;;;;;5062897;28;20036;-70
2022/06/29 06:15:34;;;;;;;4.50;1.92;;;21.90;91.20;;;;;;5050490;28;20029;-70
2022/06/29 06:18:01;;;;;;;2.90;1.88;;;21.90;90.90;;;;;;5049605;28;20079;-70
2022/06/29 06:20:27;;;;;;;3.53;1.95;;;22.00;90.70;;;;;;5048992;28;20039;-70
2022/06/29 06:22:53;;;;;;;3.05;1.80;;;22.00;90.60;;;;;;5048548;28;20083;-71
2022/06/29 06:25:18;;;;;;;6.88;2.10;;;22.10;90.60;;;;;;5049346;28;20024;-70
2022/06/29 06:27:44;;;;;;;3.45;1.85;;;22.20;90.30;;;;;;5052324;28;20025;-70
2022/06/29 06:30:36;;;;;;;2.42;1.90;;;22.20;90.20;;;;;;5037312;28;20049;-70
2022/06/29 06:33:01;;;;;;;5.07;2.00;;;22.30;90.00;;;;;;5049625;28;20043;-70
2022/06/29 06:35:27;;;;;;;3.50;2.08;;;22.40;89.60;;;;;;5036069;28;20400;-69
2022/06/29 06:37:55;;;;;;;5.50;1.85;;;22.50;88.40;;;;;;5049818;28;20071;-72
2022/06/29 06:43:06;;;;;;;3.17;1.73;;;22.60;87.00;;;;;;5053853;28;20037;-71
2022/06/29 06:45:31;;;;;;;2.72;1.80;;;22.70;87.00;;;;;;5054800;28;20029;-71
2022/06/29 06:47:57;;;;;;;2.95;1.75;;;22.80;86.00;;;;;;5053201;28;20460;-71
2022/06/29 06:50:23;;;;;;;2.53;1.70;;;22.90;85.60;;;;;;5066662;28;20032;-71
2022/06/29 06:52:49;;;;;;;2.38;1.55;;;23.00;84.90;;;;;;5053381;28;20091;-71
2022/06/29 06:55:14;;;;;;;4.65;2.05;;;23.10;83.20;;;;;;5052836;28;20033;-73
2022/06/29 06:57:40;;;;;;;5.18;2.08;;;23.10;83.60;;;;;;5049539;28;20080;-71
2022/06/29 07:00:07;;;;;;;3.65;1.50;;;23.20;82.60;;;;;;5050418;28;20028;-71
2022/06/29 07:02:32;;;;;;;6.47;2.25;;;23.20;81.20;;;;;;5052484;28;20040;-70
2022/06/29 07:04:58;;;;;;;2.72;2.00;;;23.30;79.60;;;;;;5049619;28;20029;-72
2022/06/29 07:07:24;;;;;;;3.53;1.60;;;23.30;80.30;;;;;;5050819;28;20460;-72
2022/06/29 07:09:49;;;;;;;3.03;1.67;;;23.40;80.00;;;;;;5053337;28;20052;-71
2022/06/29 07:12:15;;;;;;;5.75;1.80;;;23.60;80.60;;;;;;5052009;28;20456;-71
2022/06/29 07:14:40;;;;;;;3.25;1.63;;;23.60;80.20;;;;;;5043335;28;20483;-70
2022/06/29 07:17:06;;;;;;;2.45;1.70;;;23.70;79.00;;;;;;5045881;28;20568;-72
2022/06/29 07:19:32;;;;;;;3.30;1.80;;;23.80;78.80;;;;;;5049609;28;20400;-71
2022/06/29 07:21:57;;;;;;;4.50;1.70;;;23.90;78.70;;;;;;5044648;28;20091;-72
2022/06/29 07:24:23;;;;;;;2.40;1.45;;;24.00;78.20;;;;;;5053005;28;20495;-72
2022/06/29 07:26:48;;;;;;;5.18;1.95;;;23.90;76.80;;;;;;5052251;28;20025;-71
2022/06/29 07:29:14;;;;;;;2.63;1.70;;;24.00;77.50;;;;;;5047868;28;20029;-69
2022/06/29 07:31:39;;;;;;;4.15;1.70;;;24.00;76.10;;;;;;5050957;28;20037;-69
2022/06/29 07:34:05;;;;;;;2.75;1.70;;;24.00;75.80;;;;;;5051448;28;20487;-69
2022/06/29 07:36:31;;;;;;;2.80;1.55;;;24.00;75.50;;;;;;5041250;28;20119;-69
2022/06/29 07:38:57;;;;;;;3.13;1.95;;;24.10;74.90;;;;;;5037857;28;20195;-69
2022/06/29 07:41:23;;;;;;;2.20;1.33;;;24.10;75.90;;;;;;5052314;28;20021;-69
2022/06/29 07:43:48;;;;;;;3.70;1.65;;;24.20;75.10;;;;;;5050645;28;20058;-69
2022/06/29 07:46:14;;;;;;;4.30;1.88;;;24.30;74.40;;;;;;5048552;28;20082;-69
2022/06/29 07:48:39;;;;;;;3.17;1.70;;;24.30;73.50;;;;;;5062328;28;20502;-69
2022/06/29 07:51:05;;;;;;;2.80;1.25;;;24.50;73.00;;;;;;5052282;28;20056;-69
2022/06/29 07:53:31;;;;;;;5.20;1.30;;;24.50;70.70;;;;;;5051723;28;20404;-69
2022/06/29 07:55:57;;;;;;;1.58;1.20;;;24.50;69.80;;;;;;5039598;28;20305;-69
2022/06/29 07:58:22;;;;;;;4.93;1.50;;;24.50;69.50;;;;;;5066038;28;20017;-68
2022/06/29 08:00:50;;;;;;;2.40;1.60;;;24.60;69.00;;;;;;5044493;28;20032;-69
2022/06/29 08:03:15;;;;;;;2.80;1.75;;;24.60;69.40;;;;;;5049709;28;20029;-69
2022/06/29 08:05:41;;;;;;;2.80;1.20;;;24.70;68.80;;;;;;5042274;28;20140;-69
2022/06/29 08:08:07;;;;;;;3.38;1.40;;;24.90;68.60;;;;;;5043588;28;20052;-70
2022/06/29 08:10:33;;;;;;;1.77;1.50;;;24.90;67.40;;;;;;5051670;28;20051;-69
2022/06/29 08:12:59;;;;;;;2.60;1.30;;;24.90;66.40;;;;;;5050460;28;20119;-68
2022/06/29 08:15:26;;;;;;;1.85;1.10;;;24.90;66.60;;;;;;5052503;28;20113;-69
2022/06/29 08:17:52;;;;;;;2.50;1.50;;;25.00;66.80;;;;;;5053776;28;20059;-70
2022/06/29 08:20:19;;;;;;;1.85;1.30;;;25.10;67.70;;;;;;5053620;28;20036;-71
2022/06/29 08:22:45;;;;;;;4.30;1.30;;;25.20;66.00;;;;;;5049362;28;20449;-70
2022/06/29 08:25:11;;;;;;;4.45;1.42;;;25.30;65.40;;;;;;5051648;28;20043;-68
2022/06/29 08:27:38;;;;;;;2.03;1.20;;;25.40;64.30;;;;;;5050050;28;20029;-68
2022/06/29 08:30:04;;;;;;;1.40;1.08;;;25.40;64.70;;;;;;5043295;28;20025;-71
2022/06/29 08:32:30;;;;;;;2.80;1.25;;;25.50;64.70;;;;;;5040163;28;20032;-69
2022/06/29 08:34:59;;;;;;;3.28;1.58;;;25.50;63.60;;;;;;5043578;28;20495;-68
2022/06/29 08:37:25;;;;;;;2.08;1.30;;;25.50;62.70;;;;;;5050232;28;20112;-69
2022/06/29 08:39:51;;;;;;;1.77;1.17;;;25.50;62.00;;;;;;5050068;28;20037;-68
2022/06/29 08:42:21;;;;;;;3.72;1.63;;;25.40;61.80;;;;;;5051337;28;20025;-68
2022/06/29 08:44:49;;;;;;;2.92;1.33;;;25.40;62.00;;;;;;5050078;28;20033;-69
2022/06/29 08:47:15;;;;;;;2.65;1.30;;;25.40;61.40;;;;;;5046755;28;20427;-68
2022/06/29 08:49:41;;;;;;;2.00;1.38;;;25.40;61.80;;;;;;5051601;28;20040;-69
2022/06/29 08:52:09;;;;;;;2.85;1.65;;;25.40;62.00;;;;;;5042519;28;20108;-69
2022/06/29 08:54:41;;;;;;;4.22;1.50;;;25.50;61.90;;;;;;5046684;28;20029;-69
2022/06/29 08:57:08;;;;;;;4.30;1.92;;;25.50;62.00;;;;;;5050151;28;20100;-69
2022/06/29 08:59:36;;;;;;;2.28;1.30;;;25.60;61.80;;;;;;5046702;28;20524;-67
2022/06/29 09:02:03;;;;;;;3.30;1.48;;;25.60;61.30;;;;;;5050949;28;20503;-68
2022/06/29 09:04:29;;;;;;;2.35;1.52;;;25.70;61.40;;;;;;5046916;28;20025;-68
2022/06/29 09:06:56;;;;;;;5.45;1.42;;;25.80;61.10;;;;;;5051020;28;20106;-68
2022/06/29 09:09:23;;;;;;;3.08;1.42;;;25.80;61.30;;;;;;5051384;28;20171;-68
2022/06/29 09:11:52;;;;;;;2.22;1.48;;;25.90;62.30;;;;;;5052546;28;20380;-68
2022/06/29 09:14:23;;;;;;;3.03;1.30;;;25.90;61.50;;;;;;5037015;28;20499;-68
2022/06/29 09:16:49;;;;;;;2.65;1.50;;;26.00;62.00;;;;;;5052179;28;20055;-68
2022/06/29 09:19:15;;;;;;;2.00;1.30;;;26.10;62.10;;;;;;5050179;28;20036;-68
2022/06/29 09:21:50;;;;;;;2.67;1.20;;;26.20;62.20;;;;;;5052346;28;20438;-68
2022/06/29 09:24:17;;;;;;;2.55;1.58;;;26.30;62.60;;;;;;5052078;28;20032;-68
2022/06/29 09:26:47;;;;;;;2.08;1.48;;;26.40;62.30;;;;;;5050202;28;20032;-69
2022/06/29 09:29:30;;;;;;;2.95;1.48;;;26.40;60.80;;;;;;5059217;28;20021;-70
2022/06/29 09:32:01;;;;;;;1.98;1.55;;;26.30;61.40;;;;;;5050113;28;20396;-70
2022/06/29 09:34:29;;;;;;;2.95;1.33;;;26.40;61.20;;;;;;5051373;28;20036;-69
2022/06/29 09:36:55;;;;;;;3.58;1.20;;;26.40;60.10;;;;;;5051389;28;20013;-69
2022/06/29 09:39:48;;;;;;;1.35;1.00;;;26.40;60.10;;;;;;5048029;28;20187;-69
2022/06/29 09:42:16;;;;;;;2.53;1.33;;;26.50;60.10;;;;;;5042671;28;20630;-69
2022/06/29 09:44:43;;;;;;;1.98;1.35;;;26.60;59.90;;;;;;5048368;28;20124;-69
2022/06/29 09:47:17;;;;;;;4.30;1.63;;;26.60;60.20;;;;;;5050502;28;20025;-69
2022/06/29 09:49:46;;;;;;;2.33;1.73;;;26.70;60.50;;;;;;5063283;28;20116;-68
2022/06/29 09:52:12;;;;;;;2.92;1.40;;;26.70;59.90;;;;;;5050570;28;20479;-68
2022/06/29 09:54:55;;;;;;;9.23;1.40;;;26.60;59.70;;;;;;5050929;28;20554;-68
2022/06/29 09:57:23;;;;;;;2.17;1.30;;;26.60;60.70;;;;;;5049816;28;20071;-68
2022/06/29 10:02:58;;;;;;;3.83;1.45;;;26.60;60.80;;;;;;5047928;28;20033;-68
2022/06/29 10:05:54;;;;;;;2.22;1.27;;;26.50;60.40;;;;;;5048970;28;20040;-68
2022/06/29 10:08:14;;;;;;;3.08;1.77;;;26.50;60.20;;;;;;5049804;28;20101;-69
2022/06/29 10:10:43;;;;;;;4.05;1.63;;;26.40;60.30;;;;;;5050295;28;20121;-67
2022/06/29 10:13:39;;;;;;;2.50;1.50;;;26.40;60.00;;;;;;5049767;28;20465;-68
2022/06/29 10:16:48;;;;;;;2.53;1.42;;;26.40;60.60;;;;;;5051278;28;20033;-68
2022/06/29 10:19:51;;;;;;;4.15;1.30;;;26.50;60.90;;;;;;5031220;28;20032;-68
2022/06/29 10:22:17;;;;;;;2.22;1.30;;;26.50;61.80;;;;;;5049424;28;20029;-67
2022/06/29 10:25:05;;;;;;;3.38;1.30;;;26.60;61.70;;;;;;5051463;28;20483;-67
2022/06/29 10:27:31;;;;;;;2.38;1.40;;;26.60;60.80;;;;;;5050678;28;20110;-69
2022/06/29 10:30:19;;;;;;;1.88;1.20;;;26.70;61.20;;;;;;5049984;28;20099;-69
2022/06/29 10:32:46;;;;;;;3.75;1.25;;;26.70;60.00;;;;;;5050066;28;20358;-68
2022/06/29 10:35:11;;;;;;;2.97;1.40;;;26.70;59.30;;;;;;5050611;28;20028;-68
2022/06/29 10:38:06;;;;;;;3.65;1.40;;;26.70;60.10;;;;;;5049424;28;20025;-68
2022/06/29 10:40:31;;;;;;;;;;;26.70;59.20;;;;;;5037641;28;20072;-68
2022/06/29 10:43:20;;;;;;;2.30;1.60;;;26.70;59.30;;;;;;5042347;28;20332;-67
2022/06/29 10:45:54;;;;;;;1.90;1.38;;;26.70;59.90;;;;;;5048973;28;20033;-68
2022/06/29 10:48:20;;;;;;;3.28;1.30;;;26.70;59.70;;;;;;5048366;28;20357;-68
2022/06/29 10:50:46;;;;;;;1.98;1.40;;;26.70;60.00;;;;;;5048023;28;20102;-68
2022/06/29 10:53:17;;;;;;;4.38;1.48;;;26.80;59.30;;;;;;5049213;28;20021;-68
2022/06/29 10:55:52;;;;;;;1.85;1.25;;;26.80;59.30;;;;;;5048668;28;20124;-68
2022/06/29 10:58:18;;;;;;;2.95;1.25;;;26.80;58.80;;;;;;5049218;28;20417;-68
2022/06/29 11:00:46;;;;;;;2.83;1.50;;;26.80;58.80;;;;;;5045728;28;20025;-68
2022/06/29 11:03:16;;;;;;;1.90;1.35;;;26.80;58.80;;;;;;5047806;28;20025;-68
2022/06/29 11:12:16;;;;;;;1.77;1.15;;;27.00;59.30;;;;;;5050109;28;20100;-69
2022/06/29 11:15:39;;;;;;;1.65;1.23;;;27.00;59.40;;;;;;5044649;28;20392;-69
2022/06/29 11:16:55;;;;;;;4.03;1.33;;;27.00;59.90;;;;;;5052607;28;20420;-68
2022/06/29 11:19:39;;;;;;;3.58;1.60;;;27.00;59.30;;;;;;5053204;28;20399;-68
2022/06/29 11:22:18;;;;;;;1.58;1.23;;;27.10;59.20;;;;;;5051392;28;20104;-68
2022/06/29 11:25:00;;;;;;;3.28;1.15;;;27.10;58.50;;;;;;5053751;28;20120;-69
2022/06/29 11:27:35;;;;;;;1.77;1.25;;;27.10;59.40;;;;;;5050928;28;20112;-68
2022/06/29 11:30:01;;;;;;;1.33;1.02;;;27.20;59.20;;;;;;5053385;28;20051;-68
2022/06/29 11:32:35;;;;;;;2.22;1.38;;;27.30;60.00;;;;;;5051771;28;20514;-68
2022/06/29 11:35:01;;;;;;;3.08;1.38;;;27.40;59.90;;;;;;5052357;28;20032;-68
2022/06/29 11:37:27;;;;;;;2.05;1.48;;;27.50;59.50;;;;;;5052219;28;20036;-67
2022/06/29 11:39:52;;;;;;;2.67;1.40;;;27.60;58.60;;;;;;5050275;28;20320;-67
2022/06/29 11:45:16;;;;;;;1.83;1.40;;;27.60;58.10;;;;;;5053367;28;20028;-67
2022/06/29 11:47:55;;;;;;;4.05;1.30;;;27.60;56.90;;;;;;5052825;28;20029;-68
2022/06/29 11:50:23;;;;;;;1.85;1.17;;;27.60;57.40;;;;;;5051664;28;20155;-68
2022/06/29 11:52:50;;;;;;;2.25;1.10;;;27.60;57.30;;;;;;5051556;28;20021;-68
2022/06/29 11:55:36;;;;;;;1.48;1.27;;;27.60;56.30;;;;;;5053410;28;20124;-68
2022/06/29 11:58:02;;;;;;;3.63;1.20;;;27.70;55.70;;;;;;5043645;28;20507;-68
2022/06/29 12:00:28;;;;;;;2.20;1.38;;;27.70;55.60;;;;;;5056048;28;20029;-67
2022/06/29 12:03:00;;;;;;;2.10;1.17;;;27.70;56.10;;;;;;5053540;28;20021;-68
2022/06/29 12:05:26;;;;;;;1.30;1.02;;;27.80;55.40;;;;;;5053746;28;20033;-68
2022/06/29 12:07:51;;;;;;;2.08;1.38;;;27.80;54.60;;;;;;5052591;28;20044;-69
2022/06/29 12:10:17;;;;;;;3.20;1.70;;;27.90;54.40;;;;;;5053034;28;20060;-69
2022/06/29 12:12:43;;;;;;;4.13;1.30;;;27.90;55.00;;;;;;5051691;28;20112;-68
2022/06/29 12:15:09;;;;;;;5.32;1.20;;;27.90;55.10;;;;;;5054885;28;20052;-68
2022/06/29 12:17:36;;;;;;;2.20;1.38;;;28.00;53.50;;;;;;5053972;28;20384;-67
2022/06/29 12:20:03;;;;;;;3.60;1.27;;;27.90;52.20;;;;;;5060006;28;20020;-68
2022/06/29 12:22:29;;;;;;;1.45;1.30;;;28.00;53.00;;;;;;5039637;28;20043;-66
2022/06/29 12:24:55;;;;;;;1.88;1.23;;;28.00;51.70;;;;;;5049459;28;20111;-68
2022/06/29 12:27:20;;;;;;;4.13;1.40;;;27.90;51.30;;;;;;5048621;28;20033;-68
2022/06/29 12:29:46;;;;;;;2.53;1.48;;;27.90;52.00;;;;;;5049174;28;20044;-68
2022/06/29 12:32:11;;;;;;;2.28;1.38;;;27.90;51.80;;;;;;5050622;28;20029;-68
2022/06/29 12:34:37;;;;;;;1.95;1.20;;;27.90;52.10;;;;;;5047292;28;20033;-67
2022/06/29 12:37:03;;;;;;;3.25;1.20;;;27.80;52.30;;;;;;5050918;28;20063;-68
2022/06/29 12:39:30;;;;;;;1.80;1.10;;;27.80;52.00;;;;;;5051929;28;20041;-67
2022/06/29 12:41:56;;;;;;;2.35;1.40;;;27.80;52.20;;;;;;5051490;28;20053;-67
2022/06/29 12:44:22;;;;;;;2.60;1.40;;;27.90;53.00;;;;;;5051232;28;20067;-68
2022/06/29 12:46:47;;;;;;;5.40;1.40;;;27.90;53.90;;;;;;5051031;28;20028;-68
2022/06/29 12:49:13;;;;;;;2.88;1.38;;;27.90;52.30;;;;;;5051166;28;20025;-68
2022/06/29 12:51:38;;;;;;;3.83;1.58;;;27.90;51.90;;;;;;5051275;28;20029;-68
2022/06/29 12:54:04;;;;;;;6.07;1.50;;;27.90;53.00;;;;;;5044645;28;20025;-67
2022/06/29 12:56:30;;;;;;;1.85;1.10;;;27.90;52.50;;;;;;5051234;28;20480;-68
2022/06/29 12:58:55;;;;;;;1.95;1.30;;;28.00;52.70;;;;;;5051008;28;20166;-68
2022/06/29 13:01:21;;;;;;;2.17;1.40;;;28.10;52.30;;;;;;5051456;28;20193;-68
2022/06/29 13:03:47;;;;;;;4.72;1.30;;;28.20;52.40;;;;;;5050020;28;20432;-68
2022/06/29 13:06:12;;;;;;;7.43;1.83;;;28.20;51.10;;;;;;5050051;28;20107;-68
2022/06/29 13:08:38;;;;;;;4.80;1.10;;;28.30;51.70;;;;;;5048791;28;20427;-69
2022/06/29 13:11:04;;;;;;;1.50;1.20;;;28.40;51.90;;;;;;5051273;28;20389;-69
2022/06/29 13:13:30;;;;;;;2.10;0.93;;;28.50;52.10;;;;;;5049947;28;20036;-68